Time;durP1;ratioP1;P1;durP2;ratioP2;P2;SDS_P1;SDS_P2;PMS_P1;PMS_P2;Temp;Humidity;BMP_temperature;BMP_pressure;BME280_temperature;BME280_humidity;BME280_pressure;Samples;Min_cycle;Max_cycle;Signal;HPM_P1;HPM_P2
2022/12/19 00:01:39;;;;;;;25.95;12.32;;;1.20;99.90;;;;;;5001707;28;20034;-82
2022/12/19 00:04:06;;;;;;;31.80;14.13;;;1.30;99.90;;;;;;4968000;28;20717;-82
2022/12/19 00:06:31;;;;;;;21.38;10.20;;;1.30;99.90;;;;;;4985125;28;20026;-82
2022/12/19 00:08:59;;;;;;;33.63;15.70;;;1.20;99.90;;;;;;5001864;28;20043;-82
2022/12/19 00:11:25;;;;;;;30.65;14.05;;;1.30;99.90;;;;;;4970390;28;20034;-82
2022/12/19 00:13:50;;;;;;;23.85;10.68;;;1.30;99.90;;;;;;4968813;28;20401;-82
2022/12/19 00:16:18;;;;;;;26.15;13.18;;;1.30;99.90;;;;;;4989001;28;20475;-82
2022/12/19 00:18:44;;;;;;;33.63;14.60;;;1.30;99.90;;;;;;4953696;28;20153;-83
2022/12/19 00:21:18;;;;;;;27.77;12.35;;;1.30;99.90;;;;;;4969671;28;20023;-81
2022/12/19 00:23:43;;;;;;;23.45;11.18;;;1.30;99.90;;;;;;4984218;28;20038;-82
2022/12/19 00:26:16;;;;;;;17.98;9.10;;;1.40;99.90;;;;;;4969721;28;20584;-82
2022/12/19 00:28:42;;;;;;;24.95;9.98;;;1.40;99.90;;;;;;4985513;28;20030;-82
2022/12/19 00:31:08;;;;;;;27.25;13.52;;;1.40;99.90;;;;;;4981583;28;20049;-82
2022/12/19 00:33:33;;;;;;;25.17;10.10;;;1.40;99.90;;;;;;4969369;28;20038;-82
2022/12/19 00:36:04;;;;;;;19.70;9.13;;;1.40;99.90;;;;;;4970588;28;20038;-82
2022/12/19 00:38:30;;;;;;;21.38;9.25;;;1.50;99.90;;;;;;4984236;28;20101;-82
2022/12/19 00:41:15;;;;;;;31.48;12.05;;;1.40;99.90;;;;;;4969103;28;20039;-82
2022/12/19 00:43:40;;;;;;;18.10;8.82;;;1.40;99.90;;;;;;4983367;28;20394;-82
2022/12/19 00:46:08;;;;;;;25.35;12.20;;;1.50;99.90;;;;;;4987736;28;20026;-82
2022/12/19 00:48:34;;;;;;;33.38;15.43;;;1.50;99.90;;;;;;4950798;28;20482;-82
2022/12/19 00:51:01;;;;;;;33.55;15.02;;;1.50;99.90;;;;;;4953603;28;20033;-82
2022/12/19 00:53:26;;;;;;;33.17;16.73;;;1.50;99.90;;;;;;4953987;28;20030;-82
2022/12/19 00:55:52;;;;;;;33.85;16.42;;;1.50;99.90;;;;;;4976092;28;20058;-82
2022/12/19 00:58:18;;;;;;;30.80;15.15;;;1.60;99.90;;;;;;4969932;28;20389;-82
2022/12/19 01:00:44;;;;;;;20.40;11.00;;;1.60;99.90;;;;;;5003060;28;20034;-82
2022/12/19 01:03:09;;;;;;;34.17;15.48;;;1.60;99.90;;;;;;5003560;28;20026;-82
2022/12/19 01:05:35;;;;;;;31.73;15.32;;;1.60;99.90;;;;;;4986359;28;20019;-81
2022/12/19 01:08:00;;;;;;;18.50;7.60;;;1.60;99.90;;;;;;4969170;28;20389;-81
2022/12/19 01:10:26;;;;;;;27.25;12.77;;;1.60;99.90;;;;;;4954008;28;20034;-82
2022/12/19 01:12:51;;;;;;;21.83;10.27;;;1.60;99.90;;;;;;4991708;28;20027;-81
2022/12/19 01:15:19;;;;;;;18.77;8.18;;;1.70;99.90;;;;;;4988347;28;20418;-81
2022/12/19 01:17:45;;;;;;;25.13;11.93;;;1.70;99.90;;;;;;4969508;28;20049;-81
2022/12/19 01:20:12;;;;;;;12.43;5.30;;;1.70;99.90;;;;;;4969889;28;20037;-81
2022/12/19 01:22:38;;;;;;;31.33;14.38;;;1.70;99.90;;;;;;4947311;28;20031;-81
2022/12/19 01:25:04;;;;;;;33.20;16.58;;;1.80;99.90;;;;;;4970824;28;20788;-82
2022/12/19 01:27:30;;;;;;;36.00;15.52;;;1.80;99.90;;;;;;4973831;28;20494;-82
2022/12/19 01:29:55;;;;;;;15.07;8.30;;;1.80;99.90;;;;;;4952597;28;20066;-81
2022/12/19 01:32:21;;;;;;;28.38;14.68;;;1.80;99.90;;;;;;5002124;28;20054;-81
2022/12/19 01:34:58;;;;;;;25.30;10.23;;;1.90;99.90;;;;;;4969361;28;20093;-82
2022/12/19 01:37:24;;;;;;;22.52;10.88;;;1.90;99.90;;;;;;5002220;28;20529;-81
2022/12/19 01:39:49;;;;;;;23.75;11.40;;;1.90;99.90;;;;;;4967802;28;20034;-81
2022/12/19 01:42:20;;;;;;;32.42;14.95;;;1.90;99.90;;;;;;4971863;28;20037;-81
2022/12/19 01:45:03;;;;;;;29.48;13.50;;;1.90;99.90;;;;;;4967544;28;20084;-82
2022/12/19 01:47:30;;;;;;;27.35;13.52;;;2.00;99.90;;;;;;5001400;28;20478;-81
2022/12/19 01:49:55;;;;;;;25.15;11.13;;;2.00;99.90;;;;;;4949924;28;20030;-82
2022/12/19 01:52:23;;;;;;;20.60;9.25;;;2.00;99.90;;;;;;4969749;28;20031;-82
2022/12/19 01:54:49;;;;;;;28.65;14.52;;;2.00;99.90;;;;;;4989805;28;20045;-82
2022/12/19 01:57:14;;;;;;;30.75;15.05;;;2.00;99.90;;;;;;4967814;28;20022;-82
2022/12/19 01:59:51;;;;;;;22.75;11.75;;;2.10;99.90;;;;;;4985549;28;20121;-82
2022/12/19 02:02:20;;;;;;;25.83;11.85;;;2.10;99.90;;;;;;4983261;28;20066;-81
2022/12/19 02:04:46;;;;;;;35.22;16.65;;;2.10;99.90;;;;;;4966749;28;20402;-82
2022/12/19 02:07:11;;;;;;;27.23;11.82;;;2.10;99.90;;;;;;4969312;28;20022;-82
2022/12/19 02:09:37;;;;;;;33.42;15.82;;;2.10;99.90;;;;;;5001142;28;20066;-81
2022/12/19 02:12:03;;;;;;;24.85;12.18;;;2.20;99.90;;;;;;4969968;28;20038;-81
2022/12/19 02:14:28;;;;;;;18.02;6.20;;;2.20;99.90;;;;;;5001717;28;20108;-81
2022/12/19 02:17:16;;;;;;;33.85;13.85;;;2.20;99.90;;;;;;4985281;28;20062;-81
2022/12/19 02:20:06;;;;;;;24.13;11.00;;;2.30;99.90;;;;;;4998542;28;20042;-82
2022/12/19 02:22:59;;;;;;;34.22;16.20;;;2.30;99.90;;;;;;5000172;28;20034;-82
2022/12/19 02:25:27;;;;;;;28.60;15.07;;;2.30;99.90;;;;;;4984661;28;20037;-82
2022/12/19 02:28:01;;;;;;;32.67;15.00;;;2.40;99.90;;;;;;4999918;28;20117;-82
2022/12/19 02:30:47;;;;;;;24.40;11.63;;;2.40;99.90;;;;;;5001687;28;20034;-81
2022/12/19 02:33:35;;;;;;;25.45;13.80;;;2.50;99.90;;;;;;4970585;28;20502;-81
2022/12/19 02:36:24;;;;;;;22.95;10.93;;;2.50;99.90;;;;;;4999193;28;20080;-81
2022/12/19 02:39:10;;;;;;;31.60;14.32;;;2.50;99.90;;;;;;4982768;28;20086;-81
2022/12/19 02:41:45;;;;;;;29.13;14.57;;;2.50;99.90;;;;;;4970098;28;20074;-82
2022/12/19 02:44:38;;;;;;;31.60;15.27;;;2.60;99.90;;;;;;4969273;28;20026;-81
2022/12/19 02:47:04;;;;;;;28.00;13.98;;;2.60;99.90;;;;;;4965361;28;20022;-81
2022/12/19 02:49:31;;;;;;;29.55;14.68;;;2.70;99.90;;;;;;4966919;28;20385;-81
2022/12/19 02:52:07;;;;;;;23.00;11.52;;;2.70;99.90;;;;;;4951013;28;20038;-81
2022/12/19 02:54:32;;;;;;;33.17;14.35;;;2.60;99.90;;;;;;4965745;28;20054;-81
2022/12/19 02:57:42;;;;;;;34.95;12.60;;;2.70;99.90;;;;;;4963396;28;20081;-81
2022/12/19 03:00:11;;;;;;;28.27;14.82;;;2.80;99.90;;;;;;4925288;28;20464;-81
2022/12/19 03:02:58;;;;;;;26.38;10.98;;;2.80;99.90;;;;;;4897294;29;20036;-81
2022/12/19 03:06:00;;;;;;;17.30;8.43;;;2.80;99.90;;;;;;4955420;28;20034;-81
2022/12/19 03:08:54;;;;;;;30.33;12.57;;;2.90;99.90;;;;;;4982711;28;20489;-81
2022/12/19 03:11:20;;;;;;;26.50;12.00;;;2.90;99.90;;;;;;4970299;28;20133;-81
2022/12/19 03:13:55;;;;;;;31.17;13.25;;;2.90;99.90;;;;;;5003098;28;20090;-81
2022/12/19 03:16:20;;;;;;;20.92;10.88;;;3.00;99.90;;;;;;4986926;28;20421;-81
2022/12/19 03:18:46;;;;;;;22.98;9.68;;;2.90;99.90;;;;;;4991601;28;20035;-81
2022/12/19 03:21:22;;;;;;;21.23;10.75;;;2.90;99.90;;;;;;4971154;28;20363;-81
2022/12/19 03:23:49;;;;;;;24.88;11.57;;;3.00;99.90;;;;;;4987087;28;20030;-81
2022/12/19 03:26:18;;;;;;;27.58;11.95;;;3.00;99.90;;;;;;4985382;28;20030;-81
2022/12/19 03:29:04;;;;;;;30.25;16.05;;;3.00;99.90;;;;;;5002724;28;20431;-81
2022/12/19 03:31:30;;;;;;;24.42;12.45;;;3.00;99.90;;;;;;5000853;28;20498;-81
2022/12/19 03:33:58;;;;;;;24.98;11.55;;;3.10;99.90;;;;;;4953001;28;20497;-82
2022/12/19 03:36:27;;;;;;;22.45;11.40;;;3.10;99.90;;;;;;4986419;28;20054;-82
2022/12/19 03:38:52;;;;;;;23.83;9.50;;;3.10;99.90;;;;;;4970556;28;20545;-81
2022/12/19 03:43:07;;;;;;;27.02;13.95;;;3.10;99.90;;;;;;4970857;28;20109;-81
2022/12/19 03:44:05;;;;;;;22.80;11.93;;;3.10;99.90;;;;;;4970394;28;20114;-82
2022/12/19 03:46:30;;;;;;;23.52;10.70;;;3.20;99.90;;;;;;4954558;28;20030;-81
2022/12/19 03:48:56;;;;;;;26.67;11.70;;;3.10;99.90;;;;;;4969479;28;20030;-82
2022/12/19 03:51:44;;;;;;;27.02;11.82;;;3.20;99.90;;;;;;4985810;28;20027;-81
2022/12/19 03:54:22;;;;;;;30.80;14.07;;;3.20;99.90;;;;;;4985750;28;20030;-81
2022/12/19 03:56:59;;;;;;;23.75;12.43;;;3.20;99.90;;;;;;5002252;28;20478;-81
2022/12/19 03:59:32;;;;;;;18.13;10.07;;;3.20;99.90;;;;;;5001738;28;20042;-81
2022/12/19 04:01:57;;;;;;;29.95;16.73;;;3.20;99.90;;;;;;4985951;28;20422;-82
2022/12/19 04:04:23;;;;;;;30.20;11.05;;;3.30;99.90;;;;;;4971143;28;20061;-81
2022/12/19 04:06:48;;;;;;;29.10;13.70;;;3.30;99.90;;;;;;4985878;28;20042;-81
2022/12/19 04:09:14;;;;;;;23.77;12.00;;;3.30;99.90;;;;;;4953813;28;20502;-81
2022/12/19 04:11:45;;;;;;;26.15;14.35;;;3.30;99.90;;;;;;4991981;28;20065;-81
2022/12/19 04:14:14;;;;;;;33.10;15.57;;;3.30;99.90;;;;;;4955053;28;20540;-81
2022/12/19 04:16:56;;;;;;;22.60;10.75;;;3.30;99.90;;;;;;4985528;28;20092;-81
2022/12/19 04:19:30;;;;;;;27.58;14.90;;;3.30;99.90;;;;;;4951840;28;20031;-82
2022/12/19 04:22:01;;;;;;;22.73;9.57;;;3.30;99.90;;;;;;4970010;28;20093;-81
2022/12/19 04:24:28;;;;;;;21.23;9.02;;;3.40;99.90;;;;;;4974290;28;20032;-81
2022/12/19 04:26:54;;;;;;;35.30;16.45;;;3.30;99.90;;;;;;4996685;28;20577;-81
2022/12/19 04:29:20;;;;;;;22.05;11.48;;;3.40;99.90;;;;;;4968940;28;20054;-82
2022/12/19 04:31:46;;;;;;;18.25;8.00;;;3.40;99.90;;;;;;5001167;28;20036;-81
2022/12/19 04:34:11;;;;;;;34.20;15.13;;;3.50;99.90;;;;;;5002470;28;20486;-81
2022/12/19 04:36:37;;;;;;;21.73;10.50;;;3.50;99.90;;;;;;4967241;28;20037;-81
2022/12/19 04:39:03;;;;;;;27.45;12.55;;;3.50;99.90;;;;;;4968181;28;20042;-81
2022/12/19 04:41:28;;;;;;;25.40;12.68;;;3.50;99.90;;;;;;5002109;28;20401;-81
2022/12/19 04:43:54;;;;;;;22.35;9.00;;;3.50;99.90;;;;;;4969113;28;20034;-81
2022/12/19 04:46:19;;;;;;;33.08;13.60;;;3.60;99.90;;;;;;4987355;28;20072;-81
2022/12/19 04:48:45;;;;;;;27.13;14.25;;;3.60;99.90;;;;;;4968492;28;20050;-81
2022/12/19 04:51:10;;;;;;;24.98;13.43;;;3.60;99.90;;;;;;4951716;28;20034;-81
2022/12/19 04:53:36;;;;;;;25.15;9.57;;;3.60;99.90;;;;;;4968523;28;20276;-81
2022/12/19 04:56:03;;;;;;;27.05;13.65;;;3.70;99.90;;;;;;4966178;28;20383;-81
2022/12/19 04:58:28;;;;;;;32.42;16.23;;;3.70;99.90;;;;;;4969516;28;20035;-82
2022/12/19 05:00:54;;;;;;;23.88;10.32;;;3.70;99.90;;;;;;4953656;28;20122;-82
2022/12/19 05:03:20;;;;;;;23.23;11.13;;;3.70;99.90;;;;;;4967663;28;20397;-83
2022/12/19 05:05:45;;;;;;;22.95;12.32;;;3.80;99.90;;;;;;4951233;28;20406;-82
2022/12/19 05:08:11;;;;;;;23.10;13.13;;;3.80;99.90;;;;;;4953698;28;20452;-81
2022/12/19 05:10:36;;;;;;;23.77;12.07;;;3.80;99.90;;;;;;4968679;28;20021;-81
2022/12/19 05:13:02;;;;;;;31.42;15.20;;;3.80;99.90;;;;;;4966979;28;20034;-82
2022/12/19 05:15:30;;;;;;;32.55;16.63;;;3.90;99.90;;;;;;4952351;28;20023;-81
2022/12/19 05:17:56;;;;;;;20.48;10.48;;;3.90;99.90;;;;;;4969366;28;20043;-82
2022/12/19 05:20:22;;;;;;;21.70;10.95;;;3.90;99.90;;;;;;4968092;28;20026;-82
2022/12/19 05:22:47;;;;;;;30.38;13.45;;;3.90;99.90;;;;;;4968128;28;20030;-82
2022/12/19 05:25:13;;;;;;;25.65;13.73;;;3.90;99.90;;;;;;4984727;28;20042;-81
2022/12/19 05:27:38;;;;;;;27.05;13.00;;;3.90;99.90;;;;;;5001780;28;20023;-82
2022/12/19 05:30:05;;;;;;;28.05;13.73;;;3.90;99.90;;;;;;4967009;28;20141;-81
2022/12/19 05:32:31;;;;;;;31.83;15.35;;;3.90;99.90;;;;;;4990293;28;20379;-81
2022/12/19 05:34:56;;;;;;;35.88;17.08;;;3.90;99.90;;;;;;4968546;28;20022;-81
2022/12/19 05:37:25;;;;;;;25.10;13.93;;;3.90;99.90;;;;;;4967470;28;20038;-82
2022/12/19 05:39:50;;;;;;;29.20;15.60;;;3.90;99.90;;;;;;4965263;28;20038;-82
2022/12/19 05:42:16;;;;;;;24.60;12.15;;;4.00;99.90;;;;;;4968174;28;20449;-82
2022/12/19 05:44:41;;;;;;;31.80;15.15;;;4.00;99.90;;;;;;4957821;28;20038;-81
2022/12/19 05:47:07;;;;;;;17.30;10.13;;;4.00;99.90;;;;;;4967531;28;20038;-82
2022/12/19 05:49:33;;;;;;;28.88;13.95;;;4.00;99.90;;;;;;4967172;28;20038;-82
2022/12/19 05:51:58;;;;;;;24.10;12.07;;;4.00;99.90;;;;;;4949616;28;20034;-82
2022/12/19 05:54:25;;;;;;;23.40;11.63;;;4.00;99.90;;;;;;4967913;28;20057;-83
2022/12/19 05:56:50;;;;;;;29.38;12.80;;;4.00;99.90;;;;;;4983398;28;20046;-82
2022/12/19 05:59:16;;;;;;;20.33;11.05;;;4.00;99.90;;;;;;4966778;28;20100;-82
2022/12/19 06:01:42;;;;;;;23.50;11.60;;;4.10;99.90;;;;;;5000569;28;20120;-82
2022/12/19 06:04:08;;;;;;;24.80;12.50;;;4.10;99.90;;;;;;4967935;28;20397;-82
2022/12/19 06:06:33;;;;;;;18.40;9.93;;;4.10;99.90;;;;;;4950199;28;20432;-82
2022/12/19 06:08:59;;;;;;;16.98;10.20;;;4.10;99.90;;;;;;4983871;28;20038;-83
2022/12/19 06:11:25;;;;;;;22.30;12.63;;;4.10;99.90;;;;;;4983356;28;20026;-83
2022/12/19 06:13:51;;;;;;;30.35;13.48;;;4.20;99.90;;;;;;4950121;28;20069;-82
2022/12/19 06:16:17;;;;;;;20.70;10.63;;;4.20;99.90;;;;;;4967387;28;20074;-82
2022/12/19 06:18:43;;;;;;;27.70;14.27;;;4.20;99.90;;;;;;4968907;28;20459;-83
2022/12/19 06:21:11;;;;;;;21.55;11.48;;;4.20;99.90;;;;;;5001403;28;20069;-83
2022/12/19 06:23:36;;;;;;;23.50;11.07;;;4.20;99.90;;;;;;4969519;28;20117;-82
2022/12/19 06:26:03;;;;;;;26.63;11.68;;;4.20;99.90;;;;;;4963520;28;20569;-82
2022/12/19 06:28:29;;;;;;;27.25;11.63;;;4.20;99.90;;;;;;4968738;28;20168;-82
2022/12/19 06:30:55;;;;;;;22.75;10.73;;;4.20;99.90;;;;;;4984167;28;20121;-82
2022/12/19 06:33:21;;;;;;;24.25;13.80;;;4.20;99.90;;;;;;4973091;28;20058;-81
2022/12/19 06:35:46;;;;;;;21.63;11.60;;;4.20;99.90;;;;;;4984948;28;20038;-81
2022/12/19 06:38:12;;;;;;;29.98;15.60;;;4.30;99.90;;;;;;4969437;28;20035;-82
2022/12/19 06:43:27;;;;;;;22.38;11.73;;;4.40;99.90;;;;;;4970971;28;20684;-82
2022/12/19 06:45:53;;;;;;;18.17;10.23;;;4.40;99.90;;;;;;4926191;28;20118;-82
2022/12/19 06:48:18;;;;;;;14.63;7.53;;;4.40;99.90;;;;;;4952252;28;20050;-82
2022/12/19 06:50:44;;;;;;;23.40;10.75;;;4.40;99.90;;;;;;4967623;28;20486;-83
2022/12/19 06:53:09;;;;;;;12.18;7.38;;;4.40;99.90;;;;;;4970408;28;20401;-82
2022/12/19 06:55:36;;;;;;;25.67;14.35;;;4.50;99.90;;;;;;4968053;28;20196;-81
2022/12/19 06:58:02;;;;;;;33.75;16.42;;;4.40;99.90;;;;;;4965688;28;20462;-80
2022/12/19 07:00:29;;;;;;;23.30;12.57;;;4.40;99.90;;;;;;4974839;28;20067;-83
2022/12/19 07:02:54;;;;;;;29.80;13.18;;;4.50;99.90;;;;;;4970350;28;20065;-83
2022/12/19 07:05:20;;;;;;;19.60;10.48;;;4.50;99.90;;;;;;4949788;28;20720;-82
2022/12/19 07:07:45;;;;;;;31.65;15.82;;;4.50;99.90;;;;;;4969008;28;20097;-82
2022/12/19 07:10:11;;;;;;;22.52;11.43;;;4.50;99.90;;;;;;4968339;28;20022;-83
2022/12/19 07:12:37;;;;;;;21.20;11.70;;;4.50;99.90;;;;;;4949955;28;20031;-83
2022/12/19 07:15:02;;;;;;;23.20;11.32;;;4.50;99.90;;;;;;4967510;28;20034;-82
2022/12/19 07:17:28;;;;;;;26.50;13.55;;;4.60;99.90;;;;;;4988903;28;20431;-82
2022/12/19 07:19:54;;;;;;;21.75;10.65;;;4.60;99.90;;;;;;4946969;28;20494;-82
2022/12/19 07:22:19;;;;;;;16.58;8.88;;;4.60;99.90;;;;;;4985330;28;20031;-83
2022/12/19 07:24:45;;;;;;;21.08;10.50;;;4.60;99.90;;;;;;5000484;28;20482;-83
2022/12/19 07:27:11;;;;;;;21.70;11.05;;;4.70;99.90;;;;;;4968579;28;20035;-82
2022/12/19 07:29:36;;;;;;;25.75;13.98;;;4.70;99.90;;;;;;4983850;28;20034;-82
2022/12/19 07:32:02;;;;;;;26.02;12.80;;;4.80;99.90;;;;;;4950865;28;20066;-82
2022/12/19 07:34:28;;;;;;;15.85;8.27;;;4.80;99.90;;;;;;4950980;28;20413;-82
2022/12/19 07:36:54;;;;;;;24.08;12.52;;;4.80;99.90;;;;;;4962070;28;20067;-82
2022/12/19 07:39:20;;;;;;;16.88;8.23;;;4.80;99.90;;;;;;4968348;28;20035;-82
2022/12/19 07:41:46;;;;;;;21.38;11.27;;;4.90;99.90;;;;;;4968208;28;20121;-82
2022/12/19 07:44:12;;;;;;;24.67;11.60;;;4.90;99.90;;;;;;4950954;28;20041;-82
2022/12/19 07:46:37;;;;;;;19.88;10.52;;;4.90;99.90;;;;;;4986517;28;20022;-82
2022/12/19 07:49:03;;;;;;;15.23;7.60;;;4.90;99.90;;;;;;4968222;28;20027;-83
2022/12/19 07:51:29;;;;;;;20.77;9.40;;;4.90;99.90;;;;;;4984900;28;20030;-82
2022/12/19 07:53:54;;;;;;;18.70;9.90;;;5.00;99.90;;;;;;4999717;28;20395;-82
2022/12/19 07:56:20;;;;;;;31.30;15.00;;;5.00;99.90;;;;;;4968491;28;20493;-83
2022/12/19 07:58:46;;;;;;;22.85;9.43;;;5.00;99.90;;;;;;5002860;28;20127;-83
2022/12/19 08:01:11;;;;;;;24.52;12.80;;;5.00;99.90;;;;;;4956350;28;20034;-82
2022/12/19 08:03:37;;;;;;;18.10;9.70;;;5.00;99.90;;;;;;4954659;28;20034;-82
2022/12/19 08:06:03;;;;;;;24.67;13.00;;;5.10;99.90;;;;;;4986822;28;20034;-82
2022/12/19 08:08:29;;;;;;;21.17;9.65;;;5.10;99.90;;;;;;4988272;28;20743;-82
2022/12/19 08:10:55;;;;;;;26.48;14.23;;;5.10;99.90;;;;;;4952044;28;20030;-82
2022/12/19 08:13:21;;;;;;;21.98;10.30;;;5.10;99.90;;;;;;4988568;28;20030;-82
2022/12/19 08:15:47;;;;;;;24.50;13.38;;;5.10;99.90;;;;;;4990394;28;20027;-82
2022/12/19 08:18:12;;;;;;;18.58;9.85;;;5.10;99.90;;;;;;4968302;28;20043;-82
2022/12/19 08:20:38;;;;;;;17.30;9.93;;;5.10;99.90;;;;;;4971426;28;20026;-82
2022/12/19 08:23:03;;;;;;;25.00;15.07;;;5.20;99.90;;;;;;4970618;28;20109;-83
2022/12/19 08:25:29;;;;;;;23.30;12.45;;;5.20;99.90;;;;;;4953980;28;20458;-82
2022/12/19 08:27:54;;;;;;;24.40;12.35;;;5.20;99.90;;;;;;5004239;28;20549;-82
2022/12/19 08:30:20;;;;;;;16.67;8.23;;;5.20;99.90;;;;;;4972292;28;20113;-82
2022/12/19 08:32:46;;;;;;;23.67;12.70;;;5.20;99.90;;;;;;5003341;28;20030;-81
2022/12/19 08:35:12;;;;;;;19.33;9.95;;;5.20;99.90;;;;;;4987573;28;20047;-81
2022/12/19 08:37:38;;;;;;;26.70;13.77;;;5.30;99.90;;;;;;4970787;28;20042;-81
2022/12/19 08:40:04;;;;;;;31.33;15.10;;;5.30;99.90;;;;;;4986688;28;20481;-81
2022/12/19 08:42:32;;;;;;;24.45;11.20;;;5.30;99.90;;;;;;4991048;28;20130;-81
2022/12/19 08:44:57;;;;;;;22.52;12.05;;;5.30;99.90;;;;;;4985082;28;20043;-80
2022/12/19 08:47:23;;;;;;;22.08;11.57;;;5.30;99.90;;;;;;4970813;28;20367;-81
2022/12/19 08:49:49;;;;;;;21.83;11.35;;;5.40;99.90;;;;;;4970253;28;20035;-81
2022/12/19 08:52:16;;;;;;;14.73;8.05;;;5.40;99.90;;;;;;4971146;28;20046;-81
2022/12/19 08:54:43;;;;;;;9.73;5.90;;;5.40;99.90;;;;;;5003122;28;22105;-81
2022/12/19 08:57:09;;;;;;;22.45;11.27;;;5.40;99.90;;;;;;4968764;28;20046;-81
2022/12/19 08:59:34;;;;;;;18.83;10.07;;;5.40;99.90;;;;;;5002834;28;20022;-81
2022/12/19 09:02:00;;;;;;;22.60;12.60;;;5.50;99.90;;;;;;4963529;28;20371;-82
2022/12/19 09:04:26;;;;;;;26.20;12.52;;;5.50;99.90;;;;;;4970017;28;20410;-82
2022/12/19 09:06:51;;;;;;;18.67;9.55;;;5.50;99.90;;;;;;4973459;28;20045;-82
2022/12/19 09:09:17;;;;;;;25.75;11.00;;;5.50;99.90;;;;;;4984144;28;20557;-81
2022/12/19 09:11:43;;;;;;;22.83;11.90;;;5.60;99.90;;;;;;4984107;28;20076;-81
2022/12/19 09:14:08;;;;;;;20.73;11.27;;;5.60;99.90;;;;;;4969546;28;20097;-81
2022/12/19 09:16:34;;;;;;;21.77;11.43;;;5.60;99.90;;;;;;4985855;28;20489;-81
2022/12/19 09:18:59;;;;;;;19.55;9.43;;;5.70;99.90;;;;;;4985443;28;20118;-81
2022/12/19 09:21:28;;;;;;;17.10;9.70;;;5.70;99.90;;;;;;4970326;28;20482;-81
2022/12/19 09:23:54;;;;;;;25.50;11.82;;;5.70;99.90;;;;;;4970702;28;20534;-81
2022/12/19 09:26:21;;;;;;;16.73;9.63;;;5.70;99.90;;;;;;4966638;28;20050;-81
2022/12/19 09:28:47;;;;;;;26.83;14.25;;;5.80;99.90;;;;;;5000980;28;20027;-81
2022/12/19 09:31:15;;;;;;;18.30;10.05;;;5.80;99.90;;;;;;4969143;28;20026;-81
2022/12/19 09:33:40;;;;;;;22.52;12.52;;;5.80;99.90;;;;;;4984021;28;20112;-81
2022/12/19 09:36:07;;;;;;;23.58;13.30;;;5.80;99.90;;;;;;4968842;28;20502;-82
2022/12/19 09:38:33;;;;;;;22.83;12.65;;;5.80;99.90;;;;;;4972992;28;20069;-81
2022/12/19 09:41:29;;;;;;;20.42;10.05;;;5.90;99.90;;;;;;4991478;28;20066;-81
2022/12/19 09:44:04;;;;;;;13.25;7.38;;;5.90;99.90;;;;;;4999593;28;20031;-81
2022/12/19 09:46:46;;;;;;;23.25;10.48;;;6.00;99.90;;;;;;5002098;28;20026;-81
2022/12/19 09:49:12;;;;;;;19.88;9.38;;;6.00;99.90;;;;;;4967047;28;20026;-81
2022/12/19 09:51:50;;;;;;;27.23;13.85;;;6.00;99.90;;;;;;5002163;28;20035;-82
2022/12/19 09:54:19;;;;;;;20.33;10.48;;;6.10;99.90;;;;;;4985208;28;20038;-81
2022/12/19 09:56:44;;;;;;;19.65;10.35;;;6.10;99.90;;;;;;4968952;28;20034;-82
2022/12/19 09:59:26;;;;;;;22.88;11.93;;;6.20;99.90;;;;;;4968949;28;20034;-82
2022/12/19 10:02:19;;;;;;;21.17;10.50;;;6.20;99.90;;;;;;4985201;28;20144;-81
2022/12/19 10:04:50;;;;;;;19.98;9.95;;;6.20;99.90;;;;;;4967609;28;20057;-81
2022/12/19 10:07:16;;;;;;;17.58;9.65;;;6.30;99.90;;;;;;4952555;28;20517;-81
2022/12/19 10:09:42;;;;;;;20.40;10.18;;;6.40;99.90;;;;;;4967987;28;20540;-81
2022/12/19 10:12:28;;;;;;;21.17;10.73;;;6.40;99.90;;;;;;4967704;28;20027;-81
2022/12/19 10:15:05;;;;;;;24.25;12.40;;;6.40;99.90;;;;;;4998336;28;20047;-81
2022/12/19 10:17:57;;;;;;;14.95;9.20;;;6.50;99.90;;;;;;4969280;28;20486;-81
2022/12/19 10:20:31;;;;;;;26.45;11.82;;;6.60;99.90;;;;;;5001256;28;20037;-81
2022/12/19 10:23:03;;;;;;;15.13;8.50;;;6.60;99.90;;;;;;4966717;28;20062;-81
2022/12/19 10:25:47;;;;;;;19.15;9.70;;;6.60;99.90;;;;;;4989671;28;20029;-81
2022/12/19 10:28:36;;;;;;;23.83;11.73;;;6.60;99.90;;;;;;4999904;28;20035;-81
2022/12/19 10:31:19;;;;;;;16.95;10.00;;;6.70;99.90;;;;;;4984635;28;20486;-81
2022/12/19 10:33:52;;;;;;;13.07;7.60;;;6.70;99.90;;;;;;4967525;28;20035;-81
2022/12/19 10:36:17;;;;;;;13.85;7.60;;;6.70;99.90;;;;;;4999557;28;20109;-81
2022/12/19 10:38:53;;;;;;;20.95;11.65;;;6.80;99.90;;;;;;4969205;28;20109;-81
2022/12/19 10:41:21;;;;;;;19.40;10.90;;;6.80;99.90;;;;;;4984596;28;20077;-81
2022/12/19 10:44:01;;;;;;;18.50;8.35;;;6.80;99.90;;;;;;4968401;28;20026;-82
2022/12/19 10:46:47;;;;;;;17.20;9.70;;;6.90;99.90;;;;;;5001669;28;20033;-81
2022/12/19 10:49:18;;;;;;;16.42;9.57;;;6.90;99.90;;;;;;4985019;28;20587;-81
2022/12/19 10:51:57;;;;;;;11.27;5.72;;;6.90;99.90;;;;;;4984342;28;20077;-81
2022/12/19 10:54:43;;;;;;;21.90;11.02;;;6.90;99.90;;;;;;4982843;28;20030;-81
2022/12/19 10:57:25;;;;;;;18.67;10.15;;;7.00;99.90;;;;;;4998082;28;20093;-81
2022/12/19 11:00:13;;;;;;;22.45;10.90;;;7.00;99.90;;;;;;4982967;28;20505;-81
2022/12/19 11:02:50;;;;;;;19.45;9.98;;;7.10;99.90;;;;;;5000644;28;20486;-81
2022/12/19 11:05:24;;;;;;;16.83;8.30;;;7.10;99.90;;;;;;4969839;28;20034;-81
2022/12/19 11:08:01;;;;;;;17.67;8.70;;;7.10;99.90;;;;;;4984766;28;20038;-80
2022/12/19 11:10:45;;;;;;;18.20;8.75;;;7.20;99.90;;;;;;4967475;28;20057;-81
2022/12/19 11:13:34;;;;;;;21.63;11.75;;;7.10;99.90;;;;;;4983341;28;20037;-81
2022/12/19 11:16:00;;;;;;;12.38;6.95;;;7.10;99.90;;;;;;4970477;28;20038;-81
2022/12/19 11:18:39;;;;;;;14.20;8.18;;;7.20;99.90;;;;;;4969991;28;20537;-80
2022/12/19 11:21:27;;;;;;;20.02;11.30;;;7.20;99.90;;;;;;4997933;28;20034;-81
2022/12/19 11:24:02;;;;;;;19.30;8.35;;;7.30;99.90;;;;;;4973435;28;20042;-81
2022/12/19 11:26:48;;;;;;;14.27;9.85;;;7.20;99.90;;;;;;4982096;28;20458;-81
2022/12/19 11:29:19;;;;;;;14.18;7.65;;;7.20;99.90;;;;;;4952126;28;20030;-81
2022/12/19 11:31:46;;;;;;;18.67;9.38;;;7.20;99.90;;;;;;5001539;28;20490;-81
2022/12/19 11:34:16;;;;;;;18.73;9.43;;;7.30;99.90;;;;;;4971403;28;20548;-81
2022/12/19 11:37:17;;;;;;;15.70;9.15;;;7.30;99.90;;;;;;4973486;28;20058;-81
2022/12/19 11:39:47;;;;;;;16.67;8.98;;;7.30;99.90;;;;;;4970607;28;20113;-80
2022/12/19 11:42:31;;;;;;;16.63;8.70;;;7.30;99.90;;;;;;4988767;28;20033;-81
2022/12/19 11:45:02;;;;;;;16.25;9.48;;;7.40;99.90;;;;;;4987491;28;20041;-81
2022/12/19 11:47:39;;;;;;;11.57;6.03;;;7.40;99.90;;;;;;5004814;28;20516;-81
2022/12/19 11:50:27;;;;;;;15.57;7.45;;;7.40;99.90;;;;;;4988362;28;20073;-81
2022/12/19 11:53:19;;;;;;;18.38;9.32;;;7.40;99.90;;;;;;4988362;28;20045;-80
2022/12/19 11:56:07;;;;;;;14.65;6.50;;;7.50;99.90;;;;;;5001637;28;20508;-80
2022/12/19 11:58:33;;;;;;;13.60;7.57;;;7.50;99.90;;;;;;4972154;28;20137;-81
2022/12/19 12:01:22;;;;;;;12.73;8.05;;;7.50;99.90;;;;;;4987764;28;20173;-81
2022/12/19 12:03:51;;;;;;;15.93;8.73;;;7.60;99.90;;;;;;4271044;28;10000423;-81
2022/12/19 12:06:17;;;;;;;20.95;8.68;;;7.60;99.90;;;;;;5001752;28;20083;-81
2022/12/19 12:08:57;;;;;;;15.75;9.25;;;7.60;99.90;;;;;;4951319;28;20497;-81
2022/12/19 12:11:24;;;;;;;17.13;9.90;;;7.70;99.90;;;;;;4985594;28;20092;-81
2022/12/19 12:14:02;;;;;;;17.17;8.38;;;7.70;99.90;;;;;;4968938;28;20172;-81
2022/12/19 12:16:38;;;;;;;15.57;7.03;;;7.70;99.90;;;;;;4985980;28;20041;-81
2022/12/19 12:19:24;;;;;;;17.27;8.95;;;7.70;99.90;;;;;;4985970;28;20034;-81
2022/12/19 12:22:20;;;;;;;15.15;9.30;;;7.80;99.90;;;;;;4984545;28;20085;-81
2022/12/19 12:24:48;;;;;;;14.80;8.80;;;7.80;99.90;;;;;;4983489;28;20502;-80
2022/12/19 12:27:39;;;;;;;17.85;8.32;;;7.70;99.90;;;;;;4986123;28;20042;-81
2022/12/19 12:30:10;;;;;;;14.88;8.10;;;7.80;99.90;;;;;;4989876;28;20030;-83
2022/12/19 12:32:57;;;;;;;11.45;7.30;;;7.80;99.90;;;;;;4986363;28;20497;-80
2022/12/19 12:35:35;;;;;;;13.88;8.07;;;7.80;99.90;;;;;;4986193;28;20022;-81
2022/12/19 12:38:26;;;;;;;15.88;9.18;;;7.90;99.90;;;;;;4970812;28;20117;-81
2022/12/19 12:41:13;;;;;;;16.73;8.52;;;7.90;99.90;;;;;;4964908;28;20425;-81
2022/12/19 12:44:07;;;;;;;16.33;8.50;;;8.00;99.90;;;;;;5000817;28;20027;-81
2022/12/19 12:46:37;;;;;;;14.50;8.13;;;8.00;99.90;;;;;;4987718;28;20100;-81
2022/12/19 12:49:16;;;;;;;8.65;5.15;;;8.00;99.90;;;;;;4987203;28;20117;-81
2022/12/19 12:51:41;;;;;;;14.05;8.30;;;8.10;99.90;;;;;;4985548;28;20050;-81
2022/12/19 12:54:10;;;;;;;12.77;8.25;;;8.10;99.90;;;;;;4971771;28;20109;-81
2022/12/19 12:56:36;;;;;;;13.30;7.75;;;8.20;99.90;;;;;;4987797;28;20026;-81
2022/12/19 12:59:04;;;;;;;15.98;7.78;;;8.30;99.90;;;;;;4985962;28;20022;-81
2022/12/19 13:01:35;;;;;;;14.18;6.65;;;8.20;99.90;;;;;;4973660;28;20137;-81